Pagrindinis puslapis
METAR-TAF:

METAR-TAF

Oro uostai :

Tbilisis, Gruzija

platuma: 41-40-09N, ilguma: 044-57-17E, Aukštis: 495 m

Dabartinis oras

Ataskaita buvo paskelbta 25 minutes, ne 21:30 UTC
Vėjas 9 kt iš Šiaurės/Šiaurės Vakarų
Temperatūra 8°C
Drėgmė 61%
Slėgis 1020 hPa
Matomumas 10 km arba daugiau
nėra debesų žemiau 1500 m ir nėra kamuolinių lietaus debesų

METAR: UGTB 152130Z 33009KT CAVOK 08/01 Q1020 NOSIG

Laikas: 01:55 (21:55 UTC)

Prognozė

Ataskaita buvo paskelbta 4 valandos ir 55 minutes, ne 17:00 UTC
Prognozė galioja nuo 15 metu 18 UTC su 16 metu 18 UTC
Vėjas 7 kt iš Šiaurės Vakarų
Matomumas 10 km arba daugiau
nėra debesų žemiau 1500 m ir nėra kamuolinių lietaus debesų
Tapsmas
nuo 15 metu 21 UTC su 15 metu 24 UTC
Vėjas 17 kt iš Šiaurės Vakarų
Laikinai
nuo 16 metu 07 UTC su 16 metu 16 UTC
Vėjas 27 kt iš Šiaurės Vakarų su gūsio iki 39 kt
Išsisklaidę debesys ne aukštis 6500 ft

TAF: UGTB 151700Z 1518/1618 32007KT CAVOK TX14/1610Z TN04/1604Z BECMG 1521/1524 31017KT TEMPO 1607/1616 32027G39KT SCT065

Orai ataskaitas ir orų prognozės (METAR, TAF).

turimą stotys yra geltonos ir raudonos taškus žemėlapyje.

Perkelti pele per norėdami pamatyti stoties vardą.

Tada spustelėkite, norėdami matyti oro stebėjimo ir prognozės.

Norėdami pakeisti žemėlapį: spustelėkite ant žalios mygtukų su juodo kryžiaus žemyn,; žalią mygtuką su brūkšneliu, jei norite nutolinti; arba žalių rodyklių gretimoms žemėlapius.


METAR-TAF: